sensor_id;sensor_type;location;lat;lon;timestamp;temperature;humidity
65598;SHT31;52267;51.984;20.956;2023-07-29T00:00:53;17.02;85.01
65598;SHT31;52267;51.984;20.956;2023-07-29T00:03:26;17.02;85.35
65598;SHT31;52267;51.984;20.956;2023-07-29T00:05:53;17.03;85.33
65598;SHT31;52267;51.984;20.956;2023-07-29T00:08:20;17.03;85.27
65598;SHT31;52267;51.984;20.956;2023-07-29T00:10:47;17.05;85.27
65598;SHT31;52267;51.984;20.956;2023-07-29T00:13:14;17.06;85.28
65598;SHT31;52267;51.984;20.956;2023-07-29T00:15:41;17.05;85.37
65598;SHT31;52267;51.984;20.956;2023-07-29T00:18:08;17.05;85.43
65598;SHT31;52267;51.984;20.956;2023-07-29T00:20:35;17.02;85.54
65598;SHT31;52267;51.984;20.956;2023-07-29T00:23:02;16.97;85.68
65598;SHT31;52267;51.984;20.956;2023-07-29T00:25:29;16.93;85.79
65598;SHT31;52267;51.984;20.956;2023-07-29T00:27:56;16.93;85.67
65598;SHT31;52267;51.984;20.956;2023-07-29T00:30:25;16.95;85.59
65598;SHT31;52267;51.984;20.956;2023-07-29T00:32:52;16.99;85.38
65598;SHT31;52267;51.984;20.956;2023-07-29T00:35:19;17.01;85.35
65598;SHT31;52267;51.984;20.956;2023-07-29T00:37:46;17.01;85.39
65598;SHT31;52267;51.984;20.956;2023-07-29T00:40:20;17.00;85.33
65598;SHT31;52267;51.984;20.956;2023-07-29T00:42:49;17.00;85.32
65598;SHT31;52267;51.984;20.956;2023-07-29T00:45:16;17.00;85.33
65598;SHT31;52267;51.984;20.956;2023-07-29T00:47:44;17.00;85.36
65598;SHT31;52267;51.984;20.956;2023-07-29T00:50:11;16.97;85.33
65598;SHT31;52267;51.984;20.956;2023-07-29T00:52:40;16.95;85.32
65598;SHT31;52267;51.984;20.956;2023-07-29T00:55:08;16.92;85.28
65598;SHT31;52267;51.984;20.956;2023-07-29T00:57:35;16.91;85.22
65598;SHT31;52267;51.984;20.956;2023-07-29T01:00:02;16.86;85.20
65598;SHT31;52267;51.984;20.956;2023-07-29T01:02:30;16.79;85.23
65598;SHT31;52267;51.984;20.956;2023-07-29T01:04:59;16.74;85.28
65598;SHT31;52267;51.984;20.956;2023-07-29T01:14:04;16.61;85.18
65598;SHT31;52267;51.984;20.956;2023-07-29T01:16:42;16.56;85.14
65598;SHT31;52267;51.984;20.956;2023-07-29T01:19:28;16.52;85.06
65598;SHT31;52267;51.984;20.956;2023-07-29T01:22:36;16.45;85.04
65598;SHT31;52267;51.984;20.956;2023-07-29T01:25:07;16.39;85.07
65598;SHT31;52267;51.984;20.956;2023-07-29T01:27:36;16.34;85.00
65598;SHT31;52267;51.984;20.956;2023-07-29T01:30:03;16.33;84.96
65598;SHT31;52267;51.984;20.956;2023-07-29T01:38:14;16.24;84.87
65598;SHT31;52267;51.984;20.956;2023-07-29T01:40:45;16.20;84.89
65598;SHT31;52267;51.984;20.956;2023-07-29T01:43:15;16.22;84.92
65598;SHT31;52267;51.984;20.956;2023-07-29T01:45:44;16.24;84.88
65598;SHT31;52267;51.984;20.956;2023-07-29T01:48:11;16.25;84.94
65598;SHT31;52267;51.984;20.956;2023-07-29T01:50:38;16.28;85.11
65598;SHT31;52267;51.984;20.956;2023-07-29T01:53:05;16.29;85.16
65598;SHT31;52267;51.984;20.956;2023-07-29T01:55:32;16.28;85.23
65598;SHT31;52267;51.984;20.956;2023-07-29T01:57:59;16.28;85.21
65598;SHT31;52267;51.984;20.956;2023-07-29T02:00:26;16.30;85.23
65598;SHT31;52267;51.984;20.956;2023-07-29T02:02:53;16.33;85.28
65598;SHT31;52267;51.984;20.956;2023-07-29T02:05:20;16.32;85.14
65598;SHT31;52267;51.984;20.956;2023-07-29T02:07:50;16.33;85.14
65598;SHT31;52267;51.984;20.956;2023-07-29T02:10:17;16.35;85.16
65598;SHT31;52267;51.984;20.956;2023-07-29T02:12:44;16.38;85.25
65598;SHT31;52267;51.984;20.956;2023-07-29T02:15:11;16.43;85.36
65598;SHT31;52267;51.984;20.956;2023-07-29T02:17:39;16.46;85.53
65598;SHT31;52267;51.984;20.956;2023-07-29T02:20:11;16.53;85.66
65598;SHT31;52267;51.984;20.956;2023-07-29T02:22:38;16.59;85.80
65598;SHT31;52267;51.984;20.956;2023-07-29T02:25:05;16.64;85.94
65598;SHT31;52267;51.984;20.956;2023-07-29T02:27:33;16.69;86.13
65598;SHT31;52267;51.984;20.956;2023-07-29T02:30:00;16.72;86.21
65598;SHT31;52267;51.984;20.956;2023-07-29T02:32:28;16.77;86.21
65598;SHT31;52267;51.984;20.956;2023-07-29T02:34:55;16.82;86.25
65598;SHT31;52267;51.984;20.956;2023-07-29T02:37:22;16.85;86.43
65598;SHT31;52267;51.984;20.956;2023-07-29T02:39:49;16.88;86.35
65598;SHT31;52267;51.984;20.956;2023-07-29T02:42:15;16.92;86.37
65598;SHT31;52267;51.984;20.956;2023-07-29T02:44:42;16.93;86.51
65598;SHT31;52267;51.984;20.956;2023-07-29T02:47:09;16.96;86.52
65598;SHT31;52267;51.984;20.956;2023-07-29T02:49:36;17.01;86.52
65598;SHT31;52267;51.984;20.956;2023-07-29T02:52:03;17.02;86.57
65598;SHT31;52267;51.984;20.956;2023-07-29T02:54:31;17.05;86.66
65598;SHT31;52267;51.984;20.956;2023-07-29T02:56:58;17.08;86.57
65598;SHT31;52267;51.984;20.956;2023-07-29T02:59:25;17.09;86.58
65598;SHT31;52267;51.984;20.956;2023-07-29T03:01:52;17.12;86.61
65598;SHT31;52267;51.984;20.956;2023-07-29T03:04:20;17.15;86.62
65598;SHT31;52267;51.984;20.956;2023-07-29T03:06:46;17.18;86.54
65598;SHT31;52267;51.984;20.956;2023-07-29T03:09:14;17.19;86.55
65598;SHT31;52267;51.984;20.956;2023-07-29T03:11:41;17.21;86.63
65598;SHT31;52267;51.984;20.956;2023-07-29T03:14:08;17.23;86.66
65598;SHT31;52267;51.984;20.956;2023-07-29T03:16:35;17.24;86.67
65598;SHT31;52267;51.984;20.956;2023-07-29T03:19:02;17.26;86.61
65598;SHT31;52267;51.984;20.956;2023-07-29T03:21:29;17.27;86.62
65598;SHT31;52267;51.984;20.956;2023-07-29T03:23:56;17.29;86.54
65598;SHT31;52267;51.984;20.956;2023-07-29T03:26:23;17.29;86.58
65598;SHT31;52267;51.984;20.956;2023-07-29T03:28:51;17.32;86.59
65598;SHT31;52267;51.984;20.956;2023-07-29T03:34:48;17.37;86.69
65598;SHT31;52267;51.984;20.956;2023-07-29T03:37:15;17.38;86.63
65598;SHT31;52267;51.984;20.956;2023-07-29T03:39:42;17.41;86.57
65598;SHT31;52267;51.984;20.956;2023-07-29T03:42:10;17.42;86.38
65598;SHT31;52267;51.984;20.956;2023-07-29T03:44:37;17.42;86.30
65598;SHT31;52267;51.984;20.956;2023-07-29T03:47:06;17.39;86.31
65598;SHT31;52267;51.984;20.956;2023-07-29T03:49:33;17.39;86.35
65598;SHT31;52267;51.984;20.956;2023-07-29T03:52:00;17.40;86.38
65598;SHT31;52267;51.984;20.956;2023-07-29T03:54:27;17.41;86.39
65598;SHT31;52267;51.984;20.956;2023-07-29T03:56:54;17.44;86.51
65598;SHT31;52267;51.984;20.956;2023-07-29T03:59:21;17.47;86.55
65598;SHT31;52267;51.984;20.956;2023-07-29T04:01:49;17.48;86.44
65598;SHT31;52267;51.984;20.956;2023-07-29T04:04:16;17.50;86.40
65598;SHT31;52267;51.984;20.956;2023-07-29T04:06:43;17.51;86.49
65598;SHT31;52267;51.984;20.956;2023-07-29T04:09:10;17.53;86.40
65598;SHT31;52267;51.984;20.956;2023-07-29T04:11:37;17.52;86.27
65598;SHT31;52267;51.984;20.956;2023-07-29T04:14:04;17.55;86.29
65598;SHT31;52267;51.984;20.956;2023-07-29T04:16:31;17.58;86.36
65598;SHT31;52267;51.984;20.956;2023-07-29T04:18:58;17.62;86.34
65598;SHT31;52267;51.984;20.956;2023-07-29T04:21:25;17.64;86.32
65598;SHT31;52267;51.984;20.956;2023-07-29T04:23:52;17.67;86.28
65598;SHT31;52267;51.984;20.956;2023-07-29T04:26:20;17.68;86.11
65598;SHT31;52267;51.984;20.956;2023-07-29T04:28:47;17.68;86.07
65598;SHT31;52267;51.984;20.956;2023-07-29T04:31:16;17.69;86.07
65598;SHT31;52267;51.984;20.956;2023-07-29T04:33:43;17.69;86.05
65598;SHT31;52267;51.984;20.956;2023-07-29T04:36:10;17.73;85.99
65598;SHT31;52267;51.984;20.956;2023-07-29T04:38:37;17.76;85.94
65598;SHT31;52267;51.984;20.956;2023-07-29T04:41:05;17.77;85.89
65598;SHT31;52267;51.984;20.956;2023-07-29T04:43:33;17.77;85.87
65598;SHT31;52267;51.984;20.956;2023-07-29T04:46:00;17.77;85.83
65598;SHT31;52267;51.984;20.956;2023-07-29T04:48:27;17.77;85.79
65598;SHT31;52267;51.984;20.956;2023-07-29T04:50:54;17.81;85.69
65598;SHT31;52267;51.984;20.956;2023-07-29T04:53:21;17.85;85.60
65598;SHT31;52267;51.984;20.956;2023-07-29T04:55:48;17.87;85.60
65598;SHT31;52267;51.984;20.956;2023-07-29T04:58:15;17.89;85.57
65598;SHT31;52267;51.984;20.956;2023-07-29T05:00:42;17.91;85.47
65598;SHT31;52267;51.984;20.956;2023-07-29T05:03:09;17.93;85.43
65598;SHT31;52267;51.984;20.956;2023-07-29T05:05:36;17.95;85.37
65598;SHT31;52267;51.984;20.956;2023-07-29T05:08:03;17.98;85.29
65598;SHT31;52267;51.984;20.956;2023-07-29T05:10:30;18.06;85.26
65598;SHT31;52267;51.984;20.956;2023-07-29T05:12:57;18.12;85.19
65598;SHT31;52267;51.984;20.956;2023-07-29T05:15:24;18.18;85.06
65598;SHT31;52267;51.984;20.956;2023-07-29T05:17:52;18.27;84.85
65598;SHT31;52267;51.984;20.956;2023-07-29T05:20:18;18.37;84.79
65598;SHT31;52267;51.984;20.956;2023-07-29T05:22:45;18.44;84.68
65598;SHT31;52267;51.984;20.956;2023-07-29T05:25:12;18.46;84.63
65598;SHT31;52267;51.984;20.956;2023-07-29T05:27:39;18.49;84.53
65598;SHT31;52267;51.984;20.956;2023-07-29T05:30:07;18.50;84.36
65598;SHT31;52267;51.984;20.956;2023-07-29T05:32:34;18.53;84.27
65598;SHT31;52267;51.984;20.956;2023-07-29T05:35:01;18.60;84.27
65598;SHT31;52267;51.984;20.956;2023-07-29T05:37:28;18.63;84.14
65598;SHT31;52267;51.984;20.956;2023-07-29T05:39:55;18.66;84.02
65598;SHT31;52267;51.984;20.956;2023-07-29T05:42:22;18.72;83.91
65598;SHT31;52267;51.984;20.956;2023-07-29T05:44:49;18.78;83.74
65598;SHT31;52267;51.984;20.956;2023-07-29T05:47:16;18.82;83.54
65598;SHT31;52267;51.984;20.956;2023-07-29T05:49:43;18.88;83.37
65598;SHT31;52267;51.984;20.956;2023-07-29T05:52:10;18.93;83.13
65598;SHT31;52267;51.984;20.956;2023-07-29T05:54:37;18.95;83.08
65598;SHT31;52267;51.984;20.956;2023-07-29T05:57:04;19.04;82.95
65598;SHT31;52267;51.984;20.956;2023-07-29T05:59:32;19.17;82.80
65598;SHT31;52267;51.984;20.956;2023-07-29T06:01:59;19.16;82.02
65598;SHT31;52267;51.984;20.956;2023-07-29T06:04:26;19.13;82.10
65598;SHT31;52267;51.984;20.956;2023-07-29T06:06:53;19.23;82.28
65598;SHT31;52267;51.984;20.956;2023-07-29T06:09:22;19.35;82.01
65598;SHT31;52267;51.984;20.956;2023-07-29T06:11:49;19.51;81.72
65598;SHT31;52267;51.984;20.956;2023-07-29T06:14:16;19.63;81.47
65598;SHT31;52267;51.984;20.956;2023-07-29T06:16:43;19.72;81.30
65598;SHT31;52267;51.984;20.956;2023-07-29T06:19:10;19.83;80.83
65598;SHT31;52267;51.984;20.956;2023-07-29T06:21:38;19.93;80.38
65598;SHT31;52267;51.984;20.956;2023-07-29T06:24:05;20.02;80.16
65598;SHT31;52267;51.984;20.956;2023-07-29T06:26:32;20.10;79.82
65598;SHT31;52267;51.984;20.956;2023-07-29T06:28:59;20.20;79.81
65598;SHT31;52267;51.984;20.956;2023-07-29T06:31:26;20.20;79.54
65598;SHT31;52267;51.984;20.956;2023-07-29T06:33:53;20.17;79.45
65598;SHT31;52267;51.984;20.956;2023-07-29T06:36:24;20.10;78.77
65598;SHT31;52267;51.984;20.956;2023-07-29T06:38:51;20.09;78.60
65598;SHT31;52267;51.984;20.956;2023-07-29T06:41:18;20.11;78.34
65598;SHT31;52267;51.984;20.956;2023-07-29T06:43:45;20.15;78.14
65598;SHT31;52267;51.984;20.956;2023-07-29T06:46:12;20.23;78.13
65598;SHT31;52267;51.984;20.956;2023-07-29T06:48:39;20.37;78.17
65598;SHT31;52267;51.984;20.956;2023-07-29T06:51:06;20.58;78.03
65598;SHT31;52267;51.984;20.956;2023-07-29T06:53:33;20.75;77.61
65598;SHT31;52267;51.984;20.956;2023-07-29T06:56:00;20.92;77.46
65598;SHT31;52267;51.984;20.956;2023-07-29T06:58:28;21.09;77.37
65598;SHT31;52267;51.984;20.956;2023-07-29T07:00:55;21.06;76.48
65598;SHT31;52267;51.984;20.956;2023-07-29T07:03:22;21.10;76.81
65598;SHT31;52267;51.984;20.956;2023-07-29T07:05:49;21.17;76.56
65598;SHT31;52267;51.984;20.956;2023-07-29T07:08:17;21.38;75.99
65598;SHT31;52267;51.984;20.956;2023-07-29T07:10:44;21.58;75.72
65598;SHT31;52267;51.984;20.956;2023-07-29T07:13:14;21.85;75.08
65598;SHT31;52267;51.984;20.956;2023-07-29T07:15:41;22.17;75.00
65598;SHT31;52267;51.984;20.956;2023-07-29T07:18:08;22.45;74.45
65598;SHT31;52267;51.984;20.956;2023-07-29T07:20:35;22.61;73.05
65598;SHT31;52267;51.984;20.956;2023-07-29T07:23:03;22.73;72.48
65598;SHT31;52267;51.984;20.956;2023-07-29T07:25:32;22.76;72.99
65598;SHT31;52267;51.984;20.956;2023-07-29T07:27:59;22.73;73.19
65598;SHT31;52267;51.984;20.956;2023-07-29T07:30:26;22.59;73.04
65598;SHT31;52267;51.984;20.956;2023-07-29T07:32:53;22.57;73.34
65598;SHT31;52267;51.984;20.956;2023-07-29T07:35:20;22.49;72.87
65598;SHT31;52267;51.984;20.956;2023-07-29T07:37:47;22.44;72.86
65598;SHT31;52267;51.984;20.956;2023-07-29T07:40:14;22.39;73.17
65598;SHT31;52267;51.984;20.956;2023-07-29T07:42:41;22.38;73.07
65598;SHT31;52267;51.984;20.956;2023-07-29T07:45:09;22.52;72.58
65598;SHT31;52267;51.984;20.956;2023-07-29T07:47:36;22.78;71.96
65598;SHT31;52267;51.984;20.956;2023-07-29T07:50:03;22.91;71.50
65598;SHT31;52267;51.984;20.956;2023-07-29T07:52:30;22.90;71.04
65598;SHT31;52267;51.984;20.956;2023-07-29T07:54:58;22.85;70.10
65598;SHT31;52267;51.984;20.956;2023-07-29T07:57:25;23.06;70.03
65598;SHT31;52267;51.984;20.956;2023-07-29T07:59:52;23.44;69.64
65598;SHT31;52267;51.984;20.956;2023-07-29T08:02:19;23.79;68.55
65598;SHT31;52267;51.984;20.956;2023-07-29T08:04:46;24.02;66.85
65598;SHT31;52267;51.984;20.956;2023-07-29T08:07:13;24.20;65.62
65598;SHT31;52267;51.984;20.956;2023-07-29T08:09:41;24.17;66.63
65598;SHT31;52267;51.984;20.956;2023-07-29T08:12:08;24.28;65.06
65598;SHT31;52267;51.984;20.956;2023-07-29T08:14:35;24.29;64.12
65598;SHT31;52267;51.984;20.956;2023-07-29T08:17:02;24.53;64.41
65598;SHT31;52267;51.984;20.956;2023-07-29T08:19:29;24.97;64.52
65598;SHT31;52267;51.984;20.956;2023-07-29T08:21:56;25.31;61.72
65598;SHT31;52267;51.984;20.956;2023-07-29T08:24:23;25.61;60.82
65598;SHT31;52267;51.984;20.956;2023-07-29T08:26:51;25.80;60.58
65598;SHT31;52267;51.984;20.956;2023-07-29T08:29:18;26.10;59.19
65598;SHT31;52267;51.984;20.956;2023-07-29T08:31:45;26.22;59.06
65598;SHT31;52267;51.984;20.956;2023-07-29T08:34:12;26.16;58.90
65598;SHT31;52267;51.984;20.956;2023-07-29T08:36:39;26.05;59.22
65598;SHT31;52267;51.984;20.956;2023-07-29T08:39:06;26.35;59.09
65598;SHT31;52267;51.984;20.956;2023-07-29T08:41:37;26.50;59.18
65598;SHT31;52267;51.984;20.956;2023-07-29T08:44:35;26.69;58.01
65598;SHT31;52267;51.984;20.956;2023-07-29T08:47:10;26.88;57.99
65598;SHT31;52267;51.984;20.956;2023-07-29T08:49:40;26.97;57.73
65598;SHT31;52267;51.984;20.956;2023-07-29T08:52:10;26.95;58.27
65598;SHT31;52267;51.984;20.956;2023-07-29T08:54:38;27.26;57.52
65598;SHT31;52267;51.984;20.956;2023-07-29T08:57:06;27.20;57.81
65598;SHT31;52267;51.984;20.956;2023-07-29T08:59:33;26.83;57.49
65598;SHT31;52267;51.984;20.956;2023-07-29T09:02:00;26.41;58.86
65598;SHT31;52267;51.984;20.956;2023-07-29T09:04:28;26.22;57.86
65598;SHT31;52267;51.984;20.956;2023-07-29T09:06:55;26.42;57.97
65598;SHT31;52267;51.984;20.956;2023-07-29T09:09:23;26.53;56.79
65598;SHT31;52267;51.984;20.956;2023-07-29T09:11:51;26.78;56.51
65598;SHT31;52267;51.984;20.956;2023-07-29T09:14:18;26.85;56.61
65598;SHT31;52267;51.984;20.956;2023-07-29T09:16:46;26.97;56.57
65598;SHT31;52267;51.984;20.956;2023-07-29T09:19:13;27.02;56.66
65598;SHT31;52267;51.984;20.956;2023-07-29T09:21:40;26.97;56.67
65598;SHT31;52267;51.984;20.956;2023-07-29T09:24:08;27.09;56.40
65598;SHT31;52267;51.984;20.956;2023-07-29T09:26:36;27.14;56.52
65598;SHT31;52267;51.984;20.956;2023-07-29T09:29:03;27.63;55.71
65598;SHT31;52267;51.984;20.956;2023-07-29T09:31:30;28.03;55.21
65598;SHT31;52267;51.984;20.956;2023-07-29T09:33:58;28.24;52.67
65598;SHT31;52267;51.984;20.956;2023-07-29T09:36:29;28.19;53.05
65598;SHT31;52267;51.984;20.956;2023-07-29T09:38:58;28.10;52.63
65598;SHT31;52267;51.984;20.956;2023-07-29T09:41:27;28.26;51.98
65598;SHT31;52267;51.984;20.956;2023-07-29T09:43:58;28.49;51.84
65598;SHT31;52267;51.984;20.956;2023-07-29T09:46:34;28.83;51.49
65598;SHT31;52267;51.984;20.956;2023-07-29T09:49:03;29.03;51.71
65598;SHT31;52267;51.984;20.956;2023-07-29T09:51:32;28.57;49.41
65598;SHT31;52267;51.984;20.956;2023-07-29T09:54:05;27.93;50.37
65598;SHT31;52267;51.984;20.956;2023-07-29T09:56:33;28.19;50.37
65598;SHT31;52267;51.984;20.956;2023-07-29T09:59:06;28.44;50.37
65598;SHT31;52267;51.984;20.956;2023-07-29T10:01:33;28.78;48.34
65598;SHT31;52267;51.984;20.956;2023-07-29T10:04:02;28.81;49.92
65598;SHT31;52267;51.984;20.956;2023-07-29T10:06:30;28.36;49.50
65598;SHT31;52267;51.984;20.956;2023-07-29T10:09:00;27.96;50.42
65598;SHT31;52267;51.984;20.956;2023-07-29T10:11:27;27.74;51.12
65598;SHT31;52267;51.984;20.956;2023-07-29T10:13:55;27.53;50.97
65598;SHT31;52267;51.984;20.956;2023-07-29T10:16:23;27.53;50.44
65598;SHT31;52267;51.984;20.956;2023-07-29T10:18:51;27.80;50.07
65598;SHT31;52267;51.984;20.956;2023-07-29T10:21:20;27.65;50.28
65598;SHT31;52267;51.984;20.956;2023-07-29T10:23:49;27.86;50.08
65598;SHT31;52267;51.984;20.956;2023-07-29T10:26:22;28.03;49.50
65598;SHT31;52267;51.984;20.956;2023-07-29T10:28:52;27.83;50.26
65598;SHT31;52267;51.984;20.956;2023-07-29T10:31:21;27.61;50.48
65598;SHT31;52267;51.984;20.956;2023-07-29T10:33:49;27.74;50.86
65598;SHT31;52267;51.984;20.956;2023-07-29T10:36:17;27.67;48.90
65598;SHT31;52267;51.984;20.956;2023-07-29T10:38:45;27.84;49.02
65598;SHT31;52267;51.984;20.956;2023-07-29T10:41:12;28.26;48.93
65598;SHT31;52267;51.984;20.956;2023-07-29T10:43:39;28.55;48.87
65598;SHT31;52267;51.984;20.956;2023-07-29T10:46:16;28.82;48.00
65598;SHT31;52267;51.984;20.956;2023-07-29T10:48:56;29.18;48.13
65598;SHT31;52267;51.984;20.956;2023-07-29T10:51:58;29.47;47.01
65598;SHT31;52267;51.984;20.956;2023-07-29T10:54:17;29.62;46.68
65598;SHT31;52267;51.984;20.956;2023-07-29T10:56:48;29.59;46.42
65598;SHT31;52267;51.984;20.956;2023-07-29T11:01:54;29.60;45.88
65598;SHT31;52267;51.984;20.956;2023-07-29T11:04:25;29.71;46.00
65598;SHT31;52267;51.984;20.956;2023-07-29T11:07:18;29.74;45.73
65598;SHT31;52267;51.984;20.956;2023-07-29T11:09:59;29.55;46.27
65598;SHT31;52267;51.984;20.956;2023-07-29T11:12:45;29.50;47.02
65598;SHT31;52267;51.984;20.956;2023-07-29T11:15:25;29.74;46.43
65598;SHT31;52267;51.984;20.956;2023-07-29T11:17:56;29.73;46.16
65598;SHT31;52267;51.984;20.956;2023-07-29T11:20:28;29.64;46.72
65598;SHT31;52267;51.984;20.956;2023-07-29T11:22:59;29.35;46.39
65598;SHT31;52267;51.984;20.956;2023-07-29T11:25:28;29.09;47.40
65598;SHT31;52267;51.984;20.956;2023-07-29T11:27:58;28.89;46.84
65598;SHT31;52267;51.984;20.956;2023-07-29T11:30:26;28.99;47.88
65598;SHT31;52267;51.984;20.956;2023-07-29T11:32:55;29.27;47.42
65598;SHT31;52267;51.984;20.956;2023-07-29T11:35:25;29.28;47.41
65598;SHT31;52267;51.984;20.956;2023-07-29T11:37:53;29.32;46.62
65598;SHT31;52267;51.984;20.956;2023-07-29T11:40:23;29.09;46.96
65598;SHT31;52267;51.984;20.956;2023-07-29T11:42:51;29.33;47.18
65598;SHT31;52267;51.984;20.956;2023-07-29T11:45:20;29.62;46.76
65598;SHT31;52267;51.984;20.956;2023-07-29T11:47:49;29.66;46.26
65598;SHT31;52267;51.984;20.956;2023-07-29T11:50:16;29.24;45.74
65598;SHT31;52267;51.984;20.956;2023-07-29T11:52:45;28.82;47.23
65598;SHT31;52267;51.984;20.956;2023-07-29T11:55:14;28.55;48.30
65598;SHT31;52267;51.984;20.956;2023-07-29T11:57:42;28.47;48.65
65598;SHT31;52267;51.984;20.956;2023-07-29T12:00:10;28.29;48.68
65598;SHT31;52267;51.984;20.956;2023-07-29T12:02:39;28.33;48.96
65598;SHT31;52267;51.984;20.956;2023-07-29T12:05:11;28.51;48.32
65598;SHT31;52267;51.984;20.956;2023-07-29T12:07:40;28.27;48.80
65598;SHT31;52267;51.984;20.956;2023-07-29T12:10:09;28.20;48.20
65598;SHT31;52267;51.984;20.956;2023-07-29T12:12:40;28.60;48.78
65598;SHT31;52267;51.984;20.956;2023-07-29T12:15:12;28.92;48.42
65598;SHT31;52267;51.984;20.956;2023-07-29T12:17:40;29.10;47.71
65598;SHT31;52267;51.984;20.956;2023-07-29T12:20:11;29.23;47.33
65598;SHT31;52267;51.984;20.956;2023-07-29T12:22:38;29.39;47.15
65598;SHT31;52267;51.984;20.956;2023-07-29T12:25:05;29.48;46.65
65598;SHT31;52267;51.984;20.956;2023-07-29T12:27:33;29.42;46.59
65598;SHT31;52267;51.984;20.956;2023-07-29T12:30:01;29.56;46.71
65598;SHT31;52267;51.984;20.956;2023-07-29T12:32:30;29.66;46.63
65598;SHT31;52267;51.984;20.956;2023-07-29T12:34:57;29.55;46.86
65598;SHT31;52267;51.984;20.956;2023-07-29T12:37:33;29.89;47.26
65598;SHT31;52267;51.984;20.956;2023-07-29T12:40:00;30.12;46.64
65598;SHT31;52267;51.984;20.956;2023-07-29T12:42:28;30.30;46.50
65598;SHT31;52267;51.984;20.956;2023-07-29T12:44:55;30.24;44.91
65598;SHT31;52267;51.984;20.956;2023-07-29T12:47:23;30.15;45.59
65598;SHT31;52267;51.984;20.956;2023-07-29T12:49:50;30.18;44.93
65598;SHT31;52267;51.984;20.956;2023-07-29T12:52:17;30.50;46.00
65598;SHT31;52267;51.984;20.956;2023-07-29T12:54:44;30.65;45.10
65598;SHT31;52267;51.984;20.956;2023-07-29T12:57:11;30.58;44.35
65598;SHT31;52267;51.984;20.956;2023-07-29T12:59:38;30.55;44.67
65598;SHT31;52267;51.984;20.956;2023-07-29T13:02:06;30.60;44.23
65598;SHT31;52267;51.984;20.956;2023-07-29T13:04:33;30.70;44.72
65598;SHT31;52267;51.984;20.956;2023-07-29T13:07:00;30.65;44.03
65598;SHT31;52267;51.984;20.956;2023-07-29T13:09:27;30.75;44.44
65598;SHT31;52267;51.984;20.956;2023-07-29T13:11:54;30.89;44.50
65598;SHT31;52267;51.984;20.956;2023-07-29T13:14:21;30.92;44.94
65598;SHT31;52267;51.984;20.956;2023-07-29T13:16:48;31.03;44.80
65598;SHT31;52267;51.984;20.956;2023-07-29T13:19:15;31.08;44.71
65598;SHT31;52267;51.984;20.956;2023-07-29T13:21:42;31.15;44.57
65598;SHT31;52267;51.984;20.956;2023-07-29T13:24:09;31.21;44.48
65598;SHT31;52267;51.984;20.956;2023-07-29T13:26:36;31.35;44.47
65598;SHT31;52267;51.984;20.956;2023-07-29T13:29:04;31.27;44.84
65598;SHT31;52267;51.984;20.956;2023-07-29T13:31:31;31.25;44.65
65598;SHT31;52267;51.984;20.956;2023-07-29T13:33:58;31.19;44.08
65598;SHT31;52267;51.984;20.956;2023-07-29T13:36:25;31.16;44.17
65598;SHT31;52267;51.984;20.956;2023-07-29T13:38:52;31.30;44.26
65598;SHT31;52267;51.984;20.956;2023-07-29T13:41:19;31.33;43.24
65598;SHT31;52267;51.984;20.956;2023-07-29T13:43:46;31.41;44.01
65598;SHT31;52267;51.984;20.956;2023-07-29T13:46:13;31.51;43.54
65598;SHT31;52267;51.984;20.956;2023-07-29T13:48:40;31.50;43.70
65598;SHT31;52267;51.984;20.956;2023-07-29T13:51:07;31.50;43.44
65598;SHT31;52267;51.984;20.956;2023-07-29T13:53:35;31.40;42.84
65598;SHT31;52267;51.984;20.956;2023-07-29T13:56:02;31.33;43.94
65598;SHT31;52267;51.984;20.956;2023-07-29T13:58:29;31.43;43.93
65598;SHT31;52267;51.984;20.956;2023-07-29T14:00:56;31.40;43.65
65598;SHT31;52267;51.984;20.956;2023-07-29T14:03:23;31.43;44.32
65598;SHT31;52267;51.984;20.956;2023-07-29T14:05:50;31.58;44.04
65598;SHT31;52267;51.984;20.956;2023-07-29T14:08:17;31.45;44.29
65598;SHT31;52267;51.984;20.956;2023-07-29T14:10:44;31.20;44.24
65598;SHT31;52267;51.984;20.956;2023-07-29T14:13:11;31.20;44.55
65598;SHT31;52267;51.984;20.956;2023-07-29T14:15:38;31.29;44.69
65598;SHT31;52267;51.984;20.956;2023-07-29T14:18:05;31.28;44.56
65598;SHT31;52267;51.984;20.956;2023-07-29T14:20:33;31.32;44.32
65598;SHT31;52267;51.984;20.956;2023-07-29T14:23:00;31.29;44.22
65598;SHT31;52267;51.984;20.956;2023-07-29T14:25:27;31.30;44.27
65598;SHT31;52267;51.984;20.956;2023-07-29T14:27:54;31.26;44.59
65598;SHT31;52267;51.984;20.956;2023-07-29T14:30:21;30.90;44.65
65598;SHT31;52267;51.984;20.956;2023-07-29T14:32:48;30.21;45.41
65598;SHT31;52267;51.984;20.956;2023-07-29T14:35:15;29.87;46.42
65598;SHT31;52267;51.984;20.956;2023-07-29T14:37:42;29.83;46.49
65598;SHT31;52267;51.984;20.956;2023-07-29T14:40:10;29.79;46.17
65598;SHT31;52267;51.984;20.956;2023-07-29T14:42:37;29.99;46.22
65598;SHT31;52267;51.984;20.956;2023-07-29T14:45:04;30.19;46.22
65598;SHT31;52267;51.984;20.956;2023-07-29T14:47:32;30.34;45.71
65598;SHT31;52267;51.984;20.956;2023-07-29T14:50:01;30.40;45.58
65598;SHT31;52267;51.984;20.956;2023-07-29T14:52:28;30.43;45.49
65598;SHT31;52267;51.984;20.956;2023-07-29T14:54:55;30.55;45.33
65598;SHT31;52267;51.984;20.956;2023-07-29T14:57:22;30.39;45.54
65598;SHT31;52267;51.984;20.956;2023-07-29T14:59:49;30.10;45.87
65598;SHT31;52267;51.984;20.956;2023-07-29T15:02:16;29.85;46.75
65598;SHT31;52267;51.984;20.956;2023-07-29T15:04:44;29.69;47.05
65598;SHT31;52267;51.984;20.956;2023-07-29T15:07:11;29.59;47.40
65598;SHT31;52267;51.984;20.956;2023-07-29T15:09:38;29.62;47.66
65598;SHT31;52267;51.984;20.956;2023-07-29T15:12:06;29.50;48.09
65598;SHT31;52267;51.984;20.956;2023-07-29T15:14:34;29.46;48.82
65598;SHT31;52267;51.984;20.956;2023-07-29T15:17:01;29.48;48.84
65598;SHT31;52267;51.984;20.956;2023-07-29T15:19:28;29.31;48.79
65598;SHT31;52267;51.984;20.956;2023-07-29T15:21:55;28.97;49.10
65598;SHT31;52267;51.984;20.956;2023-07-29T15:24:22;28.73;49.64
65598;SHT31;52267;51.984;20.956;2023-07-29T15:26:49;28.68;49.47
65598;SHT31;52267;51.984;20.956;2023-07-29T15:29:16;28.71;49.60
65598;SHT31;52267;51.984;20.956;2023-07-29T15:31:43;28.73;49.66
65598;SHT31;52267;51.984;20.956;2023-07-29T15:34:10;28.84;49.73
65598;SHT31;52267;51.984;20.956;2023-07-29T15:36:37;28.79;49.64
65598;SHT31;52267;51.984;20.956;2023-07-29T15:39:04;28.78;50.21